createdAt,value
2022-12-23T00:00:53.150Z,97.84
2022-12-23T00:03:25.359Z,97.70
2022-12-23T00:05:54.520Z,97.51
2022-12-23T00:08:23.408Z,97.72
2022-12-23T00:10:53.802Z,97.84
2022-12-23T00:13:41.264Z,98.28
2022-12-23T00:16:14.928Z,97.79
2022-12-23T00:18:43.856Z,97.45
2022-12-23T00:21:15.536Z,97.37
2022-12-23T00:23:47.345Z,97.24
2022-12-23T00:26:17.388Z,97.37
2022-12-23T00:28:45.891Z,97.89
2022-12-23T00:31:18.990Z,98.63
2022-12-23T00:33:49.645Z,98.52
2022-12-23T00:36:21.363Z,98.49
2022-12-23T00:39:08.980Z,98.74
2022-12-23T00:42:16.891Z,99.64
2022-12-23T00:44:45.900Z,99.92
2022-12-23T00:47:34.536Z,99.91
2022-12-23T00:50:03.329Z,99.87
2022-12-23T00:52:32.011Z,99.55
2022-12-23T00:55:00.704Z,99.44
2022-12-23T00:57:29.584Z,99.82
2022-12-23T00:59:58.072Z,100.00
2022-12-23T01:02:45.782Z,100.00
2022-12-23T01:05:33.531Z,100.00
2022-12-23T01:08:02.014Z,99.89
2022-12-23T01:10:30.801Z,100.00
2022-12-23T01:12:59.288Z,100.00
2022-12-23T01:15:28.279Z,100.00
2022-12-23T01:17:57.170Z,100.00
2022-12-23T01:20:25.854Z,100.00
2022-12-23T01:22:54.419Z,100.00
2022-12-23T01:25:23.123Z,100.00
2022-12-23T01:27:51.727Z,100.00
2022-12-23T01:30:20.394Z,100.00
2022-12-23T01:32:48.979Z,100.00
2022-12-23T01:35:17.973Z,100.00
2022-12-23T01:37:46.660Z,100.00
2022-12-23T01:40:15.449Z,100.00
2022-12-23T01:42:43.924Z,100.00
2022-12-23T01:45:17.474Z,100.00
2022-12-23T01:47:57.890Z,100.00
2022-12-23T01:50:26.777Z,100.00
2022-12-23T01:53:08.846Z,100.00
2022-12-23T01:55:51.391Z,100.00
2022-12-23T01:58:26.324Z,100.00
2022-12-23T02:01:16.456Z,100.00
2022-12-23T02:03:50.708Z,100.00
2022-12-23T02:06:45.938Z,100.00
2022-12-23T02:09:20.563Z,100.00
2022-12-23T02:12:26.490Z,100.00
2022-12-23T02:15:32.689Z,100.00
2022-12-23T02:18:20.218Z,100.00
2022-12-23T02:21:07.745Z,100.00
2022-12-23T02:23:55.081Z,100.00
2022-12-23T02:26:52.833Z,100.00
2022-12-23T02:29:33.604Z,100.00
2022-12-23T02:32:31.504Z,100.00
2022-12-23T02:35:15.215Z,100.00
2022-12-23T02:38:04.175Z,100.00
2022-12-23T02:40:39.316Z,100.00
2022-12-23T02:43:17.828Z,100.00
2022-12-23T02:46:02.530Z,100.00
2022-12-23T02:48:34.108Z,100.00
2022-12-23T02:51:05.373Z,100.00
2022-12-23T02:53:56.505Z,100.00
2022-12-23T02:56:27.727Z,100.00
2022-12-23T02:59:01.873Z,100.00
2022-12-23T03:01:33.884Z,100.00
2022-12-23T03:04:02.947Z,100.00
2022-12-23T03:06:41.820Z,100.00
2022-12-23T03:09:29.997Z,100.00
2022-12-23T03:12:20.894Z,100.00
2022-12-23T03:15:35.879Z,100.00
2022-12-23T03:18:16.553Z,100.00
2022-12-23T03:21:03.864Z,100.00
2022-12-23T03:24:11.048Z,100.00
2022-12-23T03:26:48.906Z,100.00
2022-12-23T03:29:40.062Z,100.00
2022-12-23T03:32:10.432Z,100.00
2022-12-23T03:34:44.602Z,100.00
2022-12-23T03:37:16.633Z,100.00
2022-12-23T03:39:53.239Z,100.00
2022-12-23T03:42:29.811Z,100.00
2022-12-23T03:45:37.062Z,100.00
2022-12-23T03:48:21.249Z,100.00
2022-12-23T03:50:56.110Z,100.00
2022-12-23T03:53:31.631Z,100.00
2022-12-23T03:56:06.567Z,100.00
2022-12-23T03:58:45.386Z,100.00
2022-12-23T04:01:48.469Z,100.00
2022-12-23T04:04:29.762Z,100.00
2022-12-23T04:07:05.611Z,100.00
2022-12-23T04:09:35.984Z,100.00
2022-12-23T04:12:05.400Z,100.00
2022-12-23T04:14:35.950Z,100.00
2022-12-23T04:17:04.501Z,100.00
2022-12-23T04:19:33.666Z,100.00
2022-12-23T04:22:02.341Z,100.00
2022-12-23T04:24:31.030Z,100.00
2022-12-23T04:26:59.814Z,100.00
2022-12-23T04:29:28.401Z,100.00
2022-12-23T04:31:57.036Z,100.00
2022-12-23T04:34:26.093Z,100.00
2022-12-23T04:36:54.869Z,100.00
2022-12-23T04:39:23.758Z,100.00
2022-12-23T04:41:52.442Z,100.00
2022-12-23T04:44:21.415Z,100.00
2022-12-23T04:46:50.178Z,100.00
2022-12-23T04:49:18.707Z,100.00
2022-12-23T04:51:47.575Z,100.00
2022-12-23T04:54:16.185Z,100.00
2022-12-23T04:56:44.767Z,100.00
2022-12-23T04:59:13.656Z,100.00
2022-12-23T05:01:42.858Z,100.00
2022-12-23T05:04:12.057Z,100.00
2022-12-23T05:06:40.946Z,100.00
2022-12-23T05:09:09.632Z,100.00
2022-12-23T05:11:42.157Z,100.00
2022-12-23T05:14:12.348Z,100.00
2022-12-23T05:16:40.873Z,100.00
2022-12-23T05:19:11.260Z,100.00
2022-12-23T05:21:40.228Z,100.00
2022-12-23T05:24:09.029Z,100.00
2022-12-23T05:26:37.539Z,100.00
2022-12-23T05:29:06.493Z,100.00
2022-12-23T05:31:35.437Z,100.00
2022-12-23T05:34:06.572Z,100.00
2022-12-23T05:36:35.825Z,100.00
2022-12-23T05:39:04.514Z,100.00
2022-12-23T05:41:33.000Z,100.00
2022-12-23T05:44:01.884Z,100.00
2022-12-23T05:46:30.632Z,100.00
2022-12-23T05:48:59.338Z,100.00
2022-12-23T05:51:27.966Z,100.00
2022-12-23T05:53:56.940Z,100.00
2022-12-23T05:56:25.625Z,100.00
2022-12-23T05:58:54.375Z,100.00
2022-12-23T06:01:23.201Z,100.00
2022-12-23T06:03:51.675Z,100.00
2022-12-23T06:06:20.682Z,100.00
2022-12-23T06:08:52.044Z,100.00
2022-12-23T06:11:24.602Z,100.00
2022-12-23T06:13:53.390Z,100.00
2022-12-23T06:16:21.944Z,100.00
2022-12-23T06:18:54.163Z,100.00
2022-12-23T06:21:23.286Z,100.00
2022-12-23T06:23:51.923Z,100.00
2022-12-23T06:26:20.516Z,100.00
2022-12-23T06:28:49.708Z,100.00
2022-12-23T06:31:18.683Z,100.00
2022-12-23T06:33:47.391Z,100.00
2022-12-23T06:36:16.597Z,100.00
2022-12-23T06:38:45.273Z,100.00
2022-12-23T06:41:13.872Z,100.00
2022-12-23T06:43:42.745Z,100.00
2022-12-23T06:46:11.466Z,100.00
2022-12-23T06:48:39.917Z,100.00
2022-12-23T06:51:08.815Z,100.00
2022-12-23T06:53:37.495Z,100.00
2022-12-23T06:56:06.593Z,100.00
2022-12-23T06:58:35.483Z,100.00
2022-12-23T07:01:04.406Z,100.00
2022-12-23T07:03:33.219Z,100.00
2022-12-23T07:06:02.152Z,100.00
2022-12-23T07:08:30.634Z,100.00
2022-12-23T07:11:06.259Z,100.00
2022-12-23T07:13:35.070Z,100.00
2022-12-23T07:16:08.897Z,100.00
2022-12-23T07:18:37.563Z,100.00
2022-12-23T07:21:10.164Z,100.00
2022-12-23T07:23:44.636Z,98.86
2022-12-23T07:26:13.246Z,98.24
2022-12-23T07:28:47.024Z,98.29
2022-12-23T07:31:16.299Z,98.49
2022-12-23T07:33:45.045Z,98.96
2022-12-23T07:36:13.935Z,99.53
2022-12-23T07:38:42.825Z,99.75
2022-12-23T07:41:11.221Z,99.86
2022-12-23T07:43:40.196Z,99.98
2022-12-23T07:46:10.395Z,100.00
2022-12-23T07:48:41.689Z,100.00
2022-12-23T07:51:10.794Z,100.00
2022-12-23T07:53:39.591Z,100.00
2022-12-23T07:56:08.949Z,100.00
2022-12-23T07:58:37.849Z,99.94
2022-12-23T08:01:10.546Z,99.93
2022-12-23T08:03:39.422Z,100.00
2022-12-23T08:06:15.679Z,100.00
2022-12-23T08:08:46.324Z,100.00
2022-12-23T08:11:15.920Z,100.00
2022-12-23T08:13:46.443Z,100.00
2022-12-23T08:16:15.360Z,99.82
2022-12-23T08:18:43.921Z,99.98
2022-12-23T08:21:15.748Z,100.00
2022-12-23T08:23:44.888Z,100.00
2022-12-23T08:26:15.656Z,99.99
2022-12-23T08:28:45.506Z,100.00
2022-12-23T08:31:19.957Z,100.00
2022-12-23T08:33:50.684Z,99.99
2022-12-23T08:36:28.380Z,100.00
2022-12-23T08:38:59.157Z,99.83
2022-12-23T08:41:31.279Z,98.35
2022-12-23T08:43:59.763Z,98.69
2022-12-23T08:46:29.196Z,98.13
2022-12-23T08:48:57.857Z,96.09
2022-12-23T08:51:27.972Z,95.19
2022-12-23T08:54:00.956Z,96.41
2022-12-23T08:56:34.444Z,96.80
2022-12-23T08:59:04.274Z,97.23
2022-12-23T09:01:34.957Z,97.27
2022-12-23T09:04:05.678Z,97.40
2022-12-23T09:06:38.602Z,97.52
2022-12-23T09:09:08.545Z,97.64
2022-12-23T09:11:37.337Z,97.69
2022-12-23T09:14:08.928Z,97.37
2022-12-23T09:16:38.589Z,97.28
2022-12-23T09:19:08.086Z,97.27
2022-12-23T09:21:36.899Z,97.56
2022-12-23T09:24:06.397Z,97.52
2022-12-23T09:26:35.083Z,97.42
2022-12-23T09:29:03.685Z,96.67
2022-12-23T09:31:36.909Z,96.35
2022-12-23T09:34:06.904Z,96.67
2022-12-23T09:36:36.076Z,96.97
2022-12-23T09:39:04.731Z,97.08
2022-12-23T09:41:49.389Z,96.99
2022-12-23T09:44:49.241Z,96.48
2022-12-23T09:47:22.325Z,96.10
2022-12-23T09:49:59.116Z,95.24
2022-12-23T09:52:54.934Z,93.79
2022-12-23T09:55:27.259Z,93.43
2022-12-23T09:58:14.916Z,93.63
2022-12-23T10:00:52.325Z,93.14
2022-12-23T10:03:27.147Z,93.26
2022-12-23T10:06:11.197Z,93.19
2022-12-23T10:08:41.714Z,93.22
2022-12-23T10:11:24.447Z,93.27
2022-12-23T10:14:12.600Z,93.21
2022-12-23T10:16:58.180Z,92.93
2022-12-23T10:19:32.902Z,93.31
2022-12-23T10:22:10.552Z,93.52
2022-12-23T10:24:42.485Z,93.23
2022-12-23T10:27:35.911Z,93.03
2022-12-23T10:30:34.350Z,93.03
2022-12-23T10:33:24.100Z,92.62
2022-12-23T10:35:52.861Z,92.16
2022-12-23T10:38:36.539Z,92.42
2022-12-23T10:41:14.322Z,90.97
2022-12-23T10:44:20.384Z,91.45
2022-12-23T10:47:05.354Z,91.21
2022-12-23T10:49:50.155Z,92.17
2022-12-23T10:52:26.222Z,91.53
2022-12-23T10:54:54.758Z,89.79
2022-12-23T10:57:25.249Z,90.36
2022-12-23T10:59:54.077Z,90.23
2022-12-23T11:02:50.021Z,90.12
2022-12-23T11:05:25.035Z,90.59
2022-12-23T11:07:55.882Z,90.81
2022-12-23T11:10:31.788Z,91.23
2022-12-23T11:13:01.153Z,90.50
2022-12-23T11:15:38.722Z,90.31
2022-12-23T11:18:18.684Z,89.83
2022-12-23T11:21:03.718Z,85.65
2022-12-23T11:23:36.854Z,82.63
2022-12-23T11:26:14.033Z,81.55
2022-12-23T11:28:58.890Z,79.25
2022-12-23T11:31:32.950Z,76.45
2022-12-23T11:34:16.032Z,74.54
2022-12-23T11:36:56.521Z,74.80
2022-12-23T11:39:34.872Z,75.61
2022-12-23T11:42:14.109Z,73.60
2022-12-23T11:44:49.279Z,71.25
2022-12-23T11:47:17.933Z,67.50
2022-12-23T11:49:50.813Z,63.92
2022-12-23T11:52:21.545Z,63.75
2022-12-23T11:54:55.820Z,63.01
2022-12-23T11:57:41.038Z,60.59
2022-12-23T12:00:21.318Z,58.44
2022-12-23T12:02:55.047Z,59.24
2022-12-23T12:05:49.948Z,57.61
2022-12-23T12:08:33.475Z,57.42
2022-12-23T12:11:46.706Z,56.91
2022-12-23T12:14:46.213Z,56.95
2022-12-23T12:17:23.545Z,54.03
2022-12-23T12:20:15.332Z,55.08
2022-12-23T12:22:49.715Z,54.24
2022-12-23T12:25:26.147Z,51.10
2022-12-23T12:28:01.653Z,48.91
2022-12-23T12:30:47.283Z,48.09
2022-12-23T12:33:42.797Z,48.80
2022-12-23T12:36:30.725Z,48.47
2022-12-23T12:39:00.519Z,44.25
2022-12-23T12:41:40.129Z,45.29
2022-12-23T12:44:47.452Z,45.81
2022-12-23T12:50:29.680Z,45.26
2022-12-23T12:53:10.977Z,46.21
2022-12-23T12:55:46.351Z,44.17
2022-12-23T12:58:23.709Z,44.72
2022-12-23T13:01:04.316Z,44.25
2022-12-23T13:03:51.685Z,43.83
2022-12-23T13:06:38.295Z,44.80
2022-12-23T13:09:09.964Z,45.63
2022-12-23T13:11:54.408Z,41.39
2022-12-23T13:14:45.940Z,42.56
2022-12-23T13:17:17.732Z,43.59
2022-12-23T13:19:52.483Z,42.00
2022-12-23T13:22:41.381Z,42.72
2022-12-23T13:25:12.968Z,43.90
2022-12-23T13:27:58.014Z,43.72
2022-12-23T13:30:45.651Z,44.83
2022-12-23T13:33:42.586Z,45.60
2022-12-23T13:36:27.482Z,46.07
2022-12-23T13:39:10.987Z,46.69
2022-12-23T13:41:46.125Z,46.91
2022-12-23T13:44:15.435Z,48.48
2022-12-23T13:47:25.184Z,49.12
2022-12-23T13:50:25.974Z,49.69
2022-12-23T13:53:07.091Z,51.71
2022-12-23T13:55:51.529Z,54.09
2022-12-23T13:58:26.880Z,55.95
2022-12-23T14:01:10.788Z,57.89
2022-12-23T14:03:40.239Z,58.20
2022-12-23T14:06:41.127Z,58.59
2022-12-23T14:09:16.530Z,59.37
2022-12-23T14:11:45.724Z,60.10
2022-12-23T14:14:25.883Z,61.22
2022-12-23T14:17:05.741Z,64.86
2022-12-23T14:19:34.632Z,66.62
2022-12-23T14:22:31.163Z,66.23
2022-12-23T14:25:18.792Z,66.92
2022-12-23T14:27:47.169Z,70.91
2022-12-23T14:30:22.275Z,72.13
2022-12-23T14:32:53.848Z,71.48
2022-12-23T14:35:46.123Z,72.19
2022-12-23T14:38:14.498Z,71.27
2022-12-23T14:40:43.393Z,72.33
2022-12-23T14:43:26.058Z,73.04
2022-12-23T14:46:00.206Z,74.14
2022-12-23T14:48:35.012Z,74.08
2022-12-23T14:51:23.277Z,74.56
2022-12-23T14:53:52.449Z,78.71
2022-12-23T14:56:28.079Z,78.12
2022-12-23T14:59:23.858Z,78.55
2022-12-23T15:02:02.314Z,80.56
2022-12-23T15:04:32.997Z,79.80
2022-12-23T15:07:08.881Z,79.63
2022-12-23T15:09:55.726Z,79.09
2022-12-23T15:12:32.511Z,77.76
2022-12-23T15:15:14.649Z,76.74
2022-12-23T15:17:43.947Z,78.74
2022-12-23T15:20:24.052Z,78.93
2022-12-23T15:22:53.311Z,78.44
2022-12-23T15:25:30.591Z,79.58
2022-12-23T15:28:02.625Z,79.37
2022-12-23T15:30:35.432Z,79.29
2022-12-23T15:33:21.806Z,82.42
2022-12-23T15:35:56.521Z,80.47
2022-12-23T15:38:30.985Z,79.78
2022-12-23T15:41:06.966Z,79.55
2022-12-23T15:43:41.401Z,80.14
2022-12-23T15:46:18.910Z,80.03
2022-12-23T15:48:49.807Z,79.71
2022-12-23T15:52:06.400Z,79.05
2022-12-23T15:54:51.996Z,80.69
2022-12-23T15:57:24.874Z,80.48
2022-12-23T15:59:53.980Z,79.98
2022-12-23T16:03:00.330Z,80.74
2022-12-23T16:05:45.222Z,80.61
2022-12-23T16:08:17.223Z,81.09
2022-12-23T16:11:19.038Z,81.16
2022-12-23T16:13:59.563Z,81.44
2022-12-23T16:16:34.792Z,81.62
2022-12-23T16:19:03.832Z,81.74
2022-12-23T16:21:37.339Z,81.82
2022-12-23T16:24:09.907Z,82.17
2022-12-23T16:26:43.149Z,82.12
2022-12-23T16:29:12.394Z,83.13
2022-12-23T16:31:47.848Z,83.40
2022-12-23T16:34:20.189Z,83.49
2022-12-23T16:36:49.050Z,83.43
2022-12-23T16:39:23.147Z,83.86
2022-12-23T16:41:51.912Z,84.82
2022-12-23T16:44:21.426Z,84.60
2022-12-23T16:46:51.947Z,84.22
2022-12-23T16:49:28.002Z,84.54
2022-12-23T16:52:00.170Z,84.88
2022-12-23T16:54:29.179Z,86.51
2022-12-23T16:56:58.242Z,86.08
2022-12-23T16:59:26.946Z,86.17
2022-12-23T17:02:02.903Z,85.62
2022-12-23T17:04:32.511Z,85.50
2022-12-23T17:07:01.506Z,86.20
2022-12-23T17:09:29.987Z,86.94
2022-12-23T17:11:59.323Z,86.29
2022-12-23T17:14:28.125Z,86.09
2022-12-23T17:16:57.837Z,86.25
2022-12-23T17:19:29.447Z,86.77
2022-12-23T17:22:03.657Z,86.94
2022-12-23T17:24:32.450Z,86.79
2022-12-23T17:27:01.031Z,86.72
2022-12-23T17:29:29.821Z,86.89
2022-12-23T17:31:58.525Z,87.68
2022-12-23T17:34:27.295Z,87.81
2022-12-23T17:36:56.013Z,87.83
2022-12-23T17:39:24.633Z,87.61
2022-12-23T17:41:53.429Z,87.19
2022-12-23T17:44:22.142Z,87.13
2022-12-23T17:46:50.842Z,86.90
2022-12-23T17:49:19.521Z,86.87
2022-12-23T17:51:48.511Z,87.05
2022-12-23T17:54:23.320Z,87.58
2022-12-23T17:56:52.869Z,87.24
2022-12-23T17:59:22.260Z,87.24
2022-12-23T18:01:51.285Z,87.47
2022-12-23T18:04:20.302Z,87.37
2022-12-23T18:06:48.962Z,87.37
2022-12-23T18:09:19.143Z,87.44
2022-12-23T18:11:48.031Z,87.68
2022-12-23T18:14:22.667Z,87.53
2022-12-23T18:16:51.719Z,87.72
2022-12-23T18:19:21.621Z,88.01
2022-12-23T18:21:51.597Z,88.41
2022-12-23T18:24:20.280Z,88.76
2022-12-23T18:26:49.062Z,88.51
2022-12-23T18:29:17.750Z,88.11
2022-12-23T18:31:52.092Z,87.88
2022-12-23T18:34:21.411Z,87.25
2022-12-23T18:36:52.102Z,86.96
2022-12-23T18:39:21.365Z,86.62
2022-12-23T18:41:50.222Z,86.66
2022-12-23T18:44:21.199Z,86.87
2022-12-23T18:46:50.623Z,87.02
2022-12-23T18:49:19.282Z,87.08
2022-12-23T18:51:48.224Z,87.12
2022-12-23T18:54:17.409Z,87.43
2022-12-23T18:56:47.226Z,87.43
2022-12-23T18:59:24.004Z,87.51
2022-12-23T19:01:58.539Z,88.06
2022-12-23T19:04:28.103Z,87.96
2022-12-23T19:06:57.476Z,88.46
2022-12-23T19:09:26.651Z,88.32
2022-12-23T19:11:55.405Z,88.38
2022-12-23T19:14:23.900Z,88.49
2022-12-23T19:16:53.157Z,88.55
2022-12-23T19:19:22.519Z,88.74
2022-12-23T19:21:51.090Z,88.71
2022-12-23T19:24:19.777Z,88.82
2022-12-23T19:26:48.571Z,89.52
2022-12-23T19:29:17.259Z,90.80
2022-12-23T19:31:45.933Z,90.65
2022-12-23T19:34:15.963Z,90.28
2022-12-23T19:36:45.314Z,90.79
2022-12-23T19:39:17.063Z,92.26
2022-12-23T19:41:45.953Z,93.74
2022-12-23T19:44:14.771Z,92.80
2022-12-23T19:46:43.812Z,92.37
2022-12-23T19:49:19.212Z,92.26
2022-12-23T19:51:49.550Z,93.78
2022-12-23T19:54:19.157Z,97.46
2022-12-23T19:56:51.801Z,97.47
2022-12-23T19:59:21.663Z,96.18
2022-12-23T20:01:50.379Z,95.82
2022-12-23T20:04:19.451Z,95.48
2022-12-23T20:06:48.024Z,95.45
2022-12-23T20:09:17.119Z,95.69
2022-12-23T20:11:47.933Z,95.96
2022-12-23T20:14:18.991Z,96.27
2022-12-23T20:16:48.891Z,96.79
2022-12-23T20:19:18.456Z,96.95
2022-12-23T20:21:47.114Z,97.67
2022-12-23T20:24:16.419Z,97.11
2022-12-23T20:26:45.098Z,97.88
2022-12-23T20:29:13.684Z,97.57
2022-12-23T20:31:42.743Z,97.45
2022-12-23T20:34:16.119Z,98.41
2022-12-23T20:36:45.091Z,98.91
2022-12-23T20:39:14.263Z,99.95
2022-12-23T20:41:43.875Z,99.96
2022-12-23T20:47:01.805Z,99.12
2022-12-23T20:49:30.914Z,98.87
2022-12-23T20:51:59.537Z,98.42
2022-12-23T20:54:33.412Z,98.05
2022-12-23T20:57:03.014Z,97.93
2022-12-23T20:59:31.811Z,97.78
2022-12-23T21:02:01.563Z,97.58
2022-12-23T21:04:30.431Z,97.90
2022-12-23T21:06:59.403Z,97.95
2022-12-23T21:09:28.091Z,98.15
2022-12-23T21:11:57.186Z,98.66
2022-12-23T21:14:25.976Z,99.41
2022-12-23T21:16:54.968Z,99.80
2022-12-23T21:19:25.706Z,99.94
2022-12-23T21:21:54.577Z,99.91
2022-12-23T21:24:23.756Z,99.77
2022-12-23T21:26:56.474Z,99.99
2022-12-23T21:29:26.327Z,100.00
2022-12-23T21:31:55.651Z,100.00
2022-12-23T21:34:24.592Z,99.99
2022-12-23T21:36:53.421Z,100.00
2022-12-23T21:39:22.328Z,100.00
2022-12-23T21:41:51.772Z,100.00
2022-12-23T21:44:20.629Z,100.00
2022-12-23T21:46:51.370Z,99.97
2022-12-23T21:49:21.105Z,100.00
2022-12-23T21:51:49.891Z,100.00
2022-12-23T21:54:18.470Z,100.00
2022-12-23T21:56:46.953Z,100.00
2022-12-23T21:59:15.842Z,99.98
2022-12-23T22:01:44.982Z,100.00
2022-12-23T22:04:13.533Z,100.00
2022-12-23T22:06:46.431Z,99.95
2022-12-23T22:09:19.819Z,99.98
2022-12-23T22:11:49.252Z,99.89
2022-12-23T22:14:19.874Z,99.90
2022-12-23T22:16:48.515Z,99.69
2022-12-23T22:19:18.561Z,99.57
2022-12-23T22:21:47.543Z,99.62
2022-12-23T22:24:16.019Z,99.30
2022-12-23T22:26:44.717Z,99.17
2022-12-23T22:29:13.505Z,99.02
2022-12-23T22:31:41.986Z,98.86
2022-12-23T22:34:15.654Z,98.81
2022-12-23T22:36:44.970Z,98.59
2022-12-23T22:39:20.154Z,98.55
2022-12-23T22:41:51.648Z,98.46
2022-12-23T22:44:21.404Z,98.38
2022-12-23T22:46:50.294Z,98.48
2022-12-23T22:49:19.546Z,98.81
2022-12-23T22:51:48.158Z,98.84
2022-12-23T22:54:16.651Z,98.71
2022-12-23T22:56:46.352Z,98.79
2022-12-23T22:59:23.709Z,98.96
2022-12-23T23:01:53.442Z,99.00
2022-12-23T23:04:22.649Z,99.09
2022-12-23T23:06:51.032Z,99.06
2022-12-23T23:09:21.363Z,99.14
2022-12-23T23:11:51.041Z,99.17
2022-12-23T23:14:20.428Z,99.03
2022-12-23T23:16:49.269Z,98.96
2022-12-23T23:19:20.666Z,98.96
2022-12-23T23:21:49.716Z,98.89
2022-12-23T23:24:18.188Z,98.92
2022-12-23T23:26:46.982Z,98.88
2022-12-23T23:29:15.861Z,98.92
2022-12-23T23:31:44.845Z,99.03
2022-12-23T23:34:14.404Z,99.23
2022-12-23T23:36:43.532Z,99.35
2022-12-23T23:39:13.167Z,99.55
2022-12-23T23:41:42.368Z,99.69
2022-12-23T23:44:11.978Z,99.67
2022-12-23T23:46:40.566Z,99.70
2022-12-23T23:49:09.140Z,99.80
2022-12-23T23:51:38.712Z,99.58
2022-12-23T23:54:07.856Z,99.49
2022-12-23T23:56:38.990Z,99.36
2022-12-23T23:59:09.104Z,99.31
